sensor_id;sensor_type;location;lat;lon;timestamp;pressure;altitude;pressure_sealevel;temperature;humidity
15529;BME280;7866;52.280;9.500;2022-11-18T00:02:49;98675.06;;;6.17;100.00
15529;BME280;7866;52.280;9.500;2022-11-18T00:07:50;98684.03;;;6.16;100.00
15529;BME280;7866;52.280;9.500;2022-11-18T00:12:52;98689.91;;;6.11;100.00
15529;BME280;7866;52.280;9.500;2022-11-18T00:18:12;98694.41;;;6.11;100.00
15529;BME280;7866;52.280;9.500;2022-11-18T00:23:14;98692.22;;;6.14;100.00
15529;BME280;7866;52.280;9.500;2022-11-18T00:28:15;98689.25;;;5.95;100.00
15529;BME280;7866;52.280;9.500;2022-11-18T00:33:18;98693.81;;;6.01;100.00
15529;BME280;7866;52.280;9.500;2022-11-18T00:38:20;98701.25;;;6.05;100.00
15529;BME280;7866;52.280;9.500;2022-11-18T00:43:22;98710.59;;;6.01;100.00
15529;BME280;7866;52.280;9.500;2022-11-18T00:48:25;98707.94;;;6.01;100.00
15529;BME280;7866;52.280;9.500;2022-11-18T00:53:26;98711.59;;;6.00;100.00
15529;BME280;7866;52.280;9.500;2022-11-18T00:58:28;98715.97;;;5.93;100.00
15529;BME280;7866;52.280;9.500;2022-11-18T01:03:31;98712.88;;;6.04;100.00
15529;BME280;7866;52.280;9.500;2022-11-18T01:08:33;98726.59;;;5.93;100.00
15529;BME280;7866;52.280;9.500;2022-11-18T01:13:35;98719.84;;;6.05;100.00
15529;BME280;7866;52.280;9.500;2022-11-18T01:18:38;98728.16;;;6.02;100.00
15529;BME280;7866;52.280;9.500;2022-11-18T01:23:39;98736.13;;;6.02;100.00
15529;BME280;7866;52.280;9.500;2022-11-18T01:28:41;98735.38;;;5.93;100.00
15529;BME280;7866;52.280;9.500;2022-11-18T01:33:45;98738.25;;;5.92;100.00
15529;BME280;7866;52.280;9.500;2022-11-18T01:38:47;98737.69;;;5.97;100.00
15529;BME280;7866;52.280;9.500;2022-11-18T01:43:52;98732.03;;;6.00;100.00
15529;BME280;7866;52.280;9.500;2022-11-18T01:48:59;98738.72;;;5.96;100.00
15529;BME280;7866;52.280;9.500;2022-11-18T01:54:06;98746.22;;;5.92;100.00
15529;BME280;7866;52.280;9.500;2022-11-18T01:59:12;98746.69;;;5.96;100.00
15529;BME280;7866;52.280;9.500;2022-11-18T02:04:17;98746.53;;;5.89;100.00
15529;BME280;7866;52.280;9.500;2022-11-18T02:09:18;98759.63;;;5.99;100.00
15529;BME280;7866;52.280;9.500;2022-11-18T02:14:24;98763.47;;;5.88;100.00
15529;BME280;7866;52.280;9.500;2022-11-18T02:25:30;98763.09;;;5.99;100.00
15529;BME280;7866;52.280;9.500;2022-11-18T02:30:43;98770.75;;;5.94;100.00
15529;BME280;7866;52.280;9.500;2022-11-18T02:35:52;98772.28;;;5.88;100.00
15529;BME280;7866;52.280;9.500;2022-11-18T02:41:00;98775.81;;;5.81;100.00
15529;BME280;7866;52.280;9.500;2022-11-18T02:46:07;98779.06;;;5.91;100.00
15529;BME280;7866;52.280;9.500;2022-11-18T02:51:11;98778.19;;;5.76;100.00
15529;BME280;7866;52.280;9.500;2022-11-18T02:56:15;98782.19;;;5.72;100.00
15529;BME280;7866;52.280;9.500;2022-11-18T03:01:22;98781.38;;;5.71;100.00
15529;BME280;7866;52.280;9.500;2022-11-18T03:06:28;98791.03;;;5.64;100.00
15529;BME280;7866;52.280;9.500;2022-11-18T03:11:33;98788.03;;;5.67;100.00
15529;BME280;7866;52.280;9.500;2022-11-18T03:16:44;98793.16;;;5.68;100.00
15529;BME280;7866;52.280;9.500;2022-11-18T03:21:58;98796.50;;;5.62;100.00
15529;BME280;7866;52.280;9.500;2022-11-18T03:27:05;98800.84;;;5.63;100.00
15529;BME280;7866;52.280;9.500;2022-11-18T03:32:16;98800.50;;;5.58;100.00
15529;BME280;7866;52.280;9.500;2022-11-18T03:37:20;98805.81;;;5.66;100.00
15529;BME280;7866;52.280;9.500;2022-11-18T03:42:27;98819.03;;;5.75;100.00
15529;BME280;7866;52.280;9.500;2022-11-18T03:47:33;98831.03;;;5.62;100.00
15529;BME280;7866;52.280;9.500;2022-11-18T03:52:36;98834.34;;;5.64;100.00
15529;BME280;7866;52.280;9.500;2022-11-18T03:57:45;98844.91;;;5.41;100.00
15529;BME280;7866;52.280;9.500;2022-11-18T04:02:51;98847.19;;;5.53;100.00
15529;BME280;7866;52.280;9.500;2022-11-18T04:07:55;98853.31;;;5.53;100.00
15529;BME280;7866;52.280;9.500;2022-11-18T04:13:02;98851.56;;;5.37;100.00
15529;BME280;7866;52.280;9.500;2022-11-18T04:18:07;98857.69;;;5.38;100.00
15529;BME280;7866;52.280;9.500;2022-11-18T04:23:09;98863.69;;;5.40;100.00
15529;BME280;7866;52.280;9.500;2022-11-18T04:28:10;98870.31;;;5.44;100.00
15529;BME280;7866;52.280;9.500;2022-11-18T04:33:13;98873.09;;;5.42;100.00
15529;BME280;7866;52.280;9.500;2022-11-18T04:38:15;98877.59;;;5.42;100.00
15529;BME280;7866;52.280;9.500;2022-11-18T04:43:17;98878.81;;;5.31;100.00
15529;BME280;7866;52.280;9.500;2022-11-18T04:48:20;98876.31;;;5.30;100.00
15529;BME280;7866;52.280;9.500;2022-11-18T04:53:21;98883.59;;;5.36;100.00
15529;BME280;7866;52.280;9.500;2022-11-18T04:58:23;98883.94;;;5.33;100.00
15529;BME280;7866;52.280;9.500;2022-11-18T05:03:26;98895.06;;;5.36;100.00
15529;BME280;7866;52.280;9.500;2022-11-18T05:08:27;98892.44;;;5.28;100.00
15529;BME280;7866;52.280;9.500;2022-11-18T05:13:29;98893.31;;;5.12;100.00
15529;BME280;7866;52.280;9.500;2022-11-18T05:18:32;98905.72;;;5.20;100.00
15529;BME280;7866;52.280;9.500;2022-11-18T05:23:34;98907.22;;;5.23;100.00
15529;BME280;7866;52.280;9.500;2022-11-18T05:28:35;98912.84;;;5.28;100.00
15529;BME280;7866;52.280;9.500;2022-11-18T05:33:39;98916.84;;;5.15;100.00
15529;BME280;7866;52.280;9.500;2022-11-18T05:38:41;98921.69;;;5.04;100.00
15529;BME280;7866;52.280;9.500;2022-11-18T05:43:43;98937.41;;;5.13;100.00
15529;BME280;7866;52.280;9.500;2022-11-18T05:48:46;98947.38;;;5.03;100.00
15529;BME280;7866;52.280;9.500;2022-11-18T05:53:50;98947.03;;;5.06;100.00
15529;BME280;7866;52.280;9.500;2022-11-18T05:58:51;98953.84;;;5.01;100.00
15529;BME280;7866;52.280;9.500;2022-11-18T06:03:55;98962.66;;;4.77;100.00
15529;BME280;7866;52.280;9.500;2022-11-18T06:09:01;98973.91;;;4.70;100.00
15529;BME280;7866;52.280;9.500;2022-11-18T06:14:07;98978.75;;;4.75;100.00
15529;BME280;7866;52.280;9.500;2022-11-18T06:19:13;98984.38;;;4.64;100.00
15529;BME280;7866;52.280;9.500;2022-11-18T06:24:16;98987.84;;;4.64;100.00
15529;BME280;7866;52.280;9.500;2022-11-18T06:29:18;98993.78;;;4.58;100.00
15529;BME280;7866;52.280;9.500;2022-11-18T06:34:22;98995.13;;;4.62;100.00
15529;BME280;7866;52.280;9.500;2022-11-18T06:39:24;98995.78;;;4.64;100.00
15529;BME280;7866;52.280;9.500;2022-11-18T06:44:25;99006.53;;;4.55;100.00
15529;BME280;7866;52.280;9.500;2022-11-18T06:49:29;99005.19;;;4.51;100.00
15529;BME280;7866;52.280;9.500;2022-11-18T06:54:30;99018.66;;;4.57;100.00
15529;BME280;7866;52.280;9.500;2022-11-18T06:59:32;99021.09;;;4.51;100.00
15529;BME280;7866;52.280;9.500;2022-11-18T07:04:35;99031.06;;;4.57;100.00
15529;BME280;7866;52.280;9.500;2022-11-18T07:09:38;99037.19;;;4.57;100.00
15529;BME280;7866;52.280;9.500;2022-11-18T07:14:40;99042.53;;;4.65;100.00
15529;BME280;7866;52.280;9.500;2022-11-18T07:19:43;99054.25;;;4.47;100.00
15529;BME280;7866;52.280;9.500;2022-11-18T07:24:45;99055.75;;;4.57;100.00
15529;BME280;7866;52.280;9.500;2022-11-18T07:29:46;99068.50;;;4.54;100.00
15529;BME280;7866;52.280;9.500;2022-11-18T07:34:49;99078.28;;;4.53;100.00
15529;BME280;7866;52.280;9.500;2022-11-18T07:39:51;99083.53;;;4.37;100.00
15529;BME280;7866;52.280;9.500;2022-11-18T07:44:52;99087.56;;;4.49;100.00
15529;BME280;7866;52.280;9.500;2022-11-18T07:49:55;99090.50;;;4.38;100.00
15529;BME280;7866;52.280;9.500;2022-11-18T07:54:57;99097.06;;;4.26;100.00
15529;BME280;7866;52.280;9.500;2022-11-18T07:59:59;99107.69;;;4.26;100.00
15529;BME280;7866;52.280;9.500;2022-11-18T08:05:02;99114.16;;;4.23;100.00
15529;BME280;7866;52.280;9.500;2022-11-18T08:10:04;99116.84;;;4.05;100.00
15529;BME280;7866;52.280;9.500;2022-11-18T08:15:07;99123.75;;;3.98;100.00
15529;BME280;7866;52.280;9.500;2022-11-18T08:20:11;99126.94;;;4.02;100.00
15529;BME280;7866;52.280;9.500;2022-11-18T08:25:12;99130.28;;;4.04;100.00
15529;BME280;7866;52.280;9.500;2022-11-18T08:30:14;99135.03;;;4.00;100.00
15529;BME280;7866;52.280;9.500;2022-11-18T08:35:17;99138.09;;;4.13;100.00
15529;BME280;7866;52.280;9.500;2022-11-18T08:40:19;99137.75;;;4.08;100.00
15529;BME280;7866;52.280;9.500;2022-11-18T08:45:21;99143.66;;;4.02;100.00
15529;BME280;7866;52.280;9.500;2022-11-18T08:50:24;99158.97;;;3.90;100.00
15529;BME280;7866;52.280;9.500;2022-11-18T08:55:26;99168.09;;;3.88;100.00
15529;BME280;7866;52.280;9.500;2022-11-18T09:00:27;99173.31;;;3.80;100.00
15529;BME280;7866;52.280;9.500;2022-11-18T09:05:30;99178.44;;;3.81;100.00
15529;BME280;7866;52.280;9.500;2022-11-18T09:10:32;99191.09;;;3.69;100.00
15529;BME280;7866;52.280;9.500;2022-11-18T09:15:34;99193.63;;;3.53;100.00
15529;BME280;7866;52.280;9.500;2022-11-18T09:20:37;99199.28;;;3.58;100.00
15529;BME280;7866;52.280;9.500;2022-11-18T09:25:39;99198.06;;;3.70;100.00
15529;BME280;7866;52.280;9.500;2022-11-18T09:30:41;99209.88;;;3.58;100.00
15529;BME280;7866;52.280;9.500;2022-11-18T09:35:44;99224.63;;;3.61;100.00
15529;BME280;7866;52.280;9.500;2022-11-18T09:40:57;99233.16;;;3.37;100.00
15529;BME280;7866;52.280;9.500;2022-11-18T09:46:11;99235.44;;;3.50;100.00
15529;BME280;7866;52.280;9.500;2022-11-18T09:51:24;99236.81;;;3.36;100.00
15529;BME280;7866;52.280;9.500;2022-11-18T09:56:28;99242.84;;;3.46;100.00
15529;BME280;7866;52.280;9.500;2022-11-18T10:01:30;99250.56;;;3.39;100.00
15529;BME280;7866;52.280;9.500;2022-11-18T10:06:34;99255.63;;;3.33;100.00
15529;BME280;7866;52.280;9.500;2022-11-18T10:11:39;99260.31;;;3.57;100.00
15529;BME280;7866;52.280;9.500;2022-11-18T10:16:47;99268.78;;;3.42;99.94
15529;BME280;7866;52.280;9.500;2022-11-18T10:22:03;99274.06;;;3.25;100.00
15529;BME280;7866;52.280;9.500;2022-11-18T10:27:09;99277.28;;;3.18;99.46
15529;BME280;7866;52.280;9.500;2022-11-18T10:32:13;99289.22;;;3.22;99.34
15529;BME280;7866;52.280;9.500;2022-11-18T10:37:25;99289.81;;;3.44;100.00
15529;BME280;7866;52.280;9.500;2022-11-18T10:42:28;99298.34;;;3.38;99.90
15529;BME280;7866;52.280;9.500;2022-11-18T10:47:34;99302.88;;;3.28;99.75
15529;BME280;7866;52.280;9.500;2022-11-18T10:52:50;99306.44;;;3.09;99.18
15529;BME280;7866;52.280;9.500;2022-11-18T10:57:59;99302.03;;;3.00;99.13
15529;BME280;7866;52.280;9.500;2022-11-18T11:08:46;99310.25;;;2.96;98.79
15529;BME280;7866;52.280;9.500;2022-11-18T11:13:48;99311.88;;;3.07;98.96
15529;BME280;7866;52.280;9.500;2022-11-18T11:18:54;99319.13;;;3.05;98.94
15529;BME280;7866;52.280;9.500;2022-11-18T11:23:58;99324.81;;;3.10;98.74
15529;BME280;7866;52.280;9.500;2022-11-18T11:29:05;99337.34;;;3.08;98.42
15529;BME280;7866;52.280;9.500;2022-11-18T11:34:18;99333.88;;;3.08;98.50
15529;BME280;7866;52.280;9.500;2022-11-18T11:39:39;99338.84;;;2.83;97.93
15529;BME280;7866;52.280;9.500;2022-11-18T11:44:54;99350.97;;;2.76;98.97
15529;BME280;7866;52.280;9.500;2022-11-18T11:50:02;99356.53;;;2.73;98.72
15529;BME280;7866;52.280;9.500;2022-11-18T11:55:18;99366.72;;;2.58;98.48
15529;BME280;7866;52.280;9.500;2022-11-18T12:00:23;99364.91;;;2.68;98.90
15529;BME280;7866;52.280;9.500;2022-11-18T12:05:28;99370.16;;;2.78;98.75
15529;BME280;7866;52.280;9.500;2022-11-18T12:10:42;99377.75;;;2.44;98.18
15529;BME280;7866;52.280;9.500;2022-11-18T12:15:57;99366.59;;;2.50;98.81
15529;BME280;7866;52.280;9.500;2022-11-18T12:21:02;99370.75;;;2.62;98.46
15529;BME280;7866;52.280;9.500;2022-11-18T12:26:07;99378.00;;;2.60;98.18
15529;BME280;7866;52.280;9.500;2022-11-18T12:31:33;99385.53;;;2.36;98.53
15529;BME280;7866;52.280;9.500;2022-11-18T12:36:37;99382.34;;;2.32;98.73
15529;BME280;7866;52.280;9.500;2022-11-18T12:41:54;99390.38;;;2.31;99.15
15529;BME280;7866;52.280;9.500;2022-11-18T12:47:14;99403.91;;;2.28;99.16
15529;BME280;7866;52.280;9.500;2022-11-18T12:58:20;99409.72;;;2.21;98.89
15529;BME280;7866;52.280;9.500;2022-11-18T13:03:24;99412.09;;;2.25;98.78
15529;BME280;7866;52.280;9.500;2022-11-18T13:08:28;99411.97;;;2.36;98.97
15529;BME280;7866;52.280;9.500;2022-11-18T13:13:32;99413.50;;;2.29;98.57
15529;BME280;7866;52.280;9.500;2022-11-18T13:18:46;99412.50;;;2.30;98.64
15529;BME280;7866;52.280;9.500;2022-11-18T13:23:48;99428.34;;;2.30;98.88
15529;BME280;7866;52.280;9.500;2022-11-18T13:29:19;99426.56;;;2.40;99.12
15529;BME280;7866;52.280;9.500;2022-11-18T13:34:25;99440.44;;;2.42;98.66
15529;BME280;7866;52.280;9.500;2022-11-18T13:39:29;99439.63;;;2.32;98.58
15529;BME280;7866;52.280;9.500;2022-11-18T13:44:34;99438.63;;;2.13;98.58
15529;BME280;7866;52.280;9.500;2022-11-18T13:49:45;99450.88;;;2.14;98.55
15529;BME280;7866;52.280;9.500;2022-11-18T13:54:51;99452.53;;;1.96;98.69
15529;BME280;7866;52.280;9.500;2022-11-18T13:59:58;99456.81;;;1.97;98.32
15529;BME280;7866;52.280;9.500;2022-11-18T14:05:02;99460.56;;;1.85;98.35
15529;BME280;7866;52.280;9.500;2022-11-18T14:10:06;99463.72;;;1.79;98.18
15529;BME280;7866;52.280;9.500;2022-11-18T14:15:14;99472.63;;;1.87;97.93
15529;BME280;7866;52.280;9.500;2022-11-18T14:20:16;99476.56;;;1.93;97.37
15529;BME280;7866;52.280;9.500;2022-11-18T14:25:22;99480.44;;;1.98;96.36
15529;BME280;7866;52.280;9.500;2022-11-18T14:30:36;99481.84;;;2.03;96.26
15529;BME280;7866;52.280;9.500;2022-11-18T14:35:39;99483.16;;;1.78;95.84
15529;BME280;7866;52.280;9.500;2022-11-18T14:40:41;99486.13;;;1.84;95.21
15529;BME280;7866;52.280;9.500;2022-11-18T14:45:44;99490.03;;;1.59;95.46
15529;BME280;7866;52.280;9.500;2022-11-18T14:50:46;99511.94;;;1.81;95.80
15529;BME280;7866;52.280;9.500;2022-11-18T14:55:49;99520.94;;;1.68;95.26
15529;BME280;7866;52.280;9.500;2022-11-18T15:00:53;99517.91;;;1.83;94.82
15529;BME280;7866;52.280;9.500;2022-11-18T15:05:55;99532.44;;;1.67;95.10
15529;BME280;7866;52.280;9.500;2022-11-18T15:10:56;99548.44;;;1.45;95.46
15529;BME280;7866;52.280;9.500;2022-11-18T15:16:00;99552.06;;;1.44;95.54
15529;BME280;7866;52.280;9.500;2022-11-18T15:21:03;99560.78;;;1.23;94.80
15529;BME280;7866;52.280;9.500;2022-11-18T15:26:14;99564.78;;;1.39;95.08
15529;BME280;7866;52.280;9.500;2022-11-18T15:31:18;99568.59;;;1.25;94.53
15529;BME280;7866;52.280;9.500;2022-11-18T15:36:22;99580.47;;;1.19;95.46
15529;BME280;7866;52.280;9.500;2022-11-18T15:41:25;99575.72;;;1.13;95.55
15529;BME280;7866;52.280;9.500;2022-11-18T15:46:29;99570.50;;;1.23;94.95
15529;BME280;7866;52.280;9.500;2022-11-18T15:51:32;99578.75;;;1.30;95.06
15529;BME280;7866;52.280;9.500;2022-11-18T15:56:34;99587.13;;;1.35;94.77
15529;BME280;7866;52.280;9.500;2022-11-18T16:01:39;99585.25;;;1.26;94.97
15529;BME280;7866;52.280;9.500;2022-11-18T16:06:41;99591.03;;;1.19;94.83
15529;BME280;7866;52.280;9.500;2022-11-18T16:11:43;99603.56;;;1.06;94.99
15529;BME280;7866;52.280;9.500;2022-11-18T16:17:04;99608.16;;;1.04;94.99
15529;BME280;7866;52.280;9.500;2022-11-18T16:22:05;99607.41;;;1.02;95.11
15529;BME280;7866;52.280;9.500;2022-11-18T16:27:07;99618.03;;;0.80;94.40
15529;BME280;7866;52.280;9.500;2022-11-18T16:32:12;99628.09;;;0.86;94.68
15529;BME280;7866;52.280;9.500;2022-11-18T16:37:14;99634.34;;;0.85;95.01
15529;BME280;7866;52.280;9.500;2022-11-18T16:42:16;99642.69;;;0.90;95.79
15529;BME280;7866;52.280;9.500;2022-11-18T16:47:19;99649.03;;;0.87;95.34
15529;BME280;7866;52.280;9.500;2022-11-18T16:52:20;99649.19;;;0.74;96.17
15529;BME280;7866;52.280;9.500;2022-11-18T16:57:22;99654.47;;;0.74;95.99
15529;BME280;7866;52.280;9.500;2022-11-18T17:02:26;99660.84;;;0.72;96.17
15529;BME280;7866;52.280;9.500;2022-11-18T17:07:27;99668.03;;;0.70;96.06
15529;BME280;7866;52.280;9.500;2022-11-18T17:12:29;99683.47;;;0.63;96.20
15529;BME280;7866;52.280;9.500;2022-11-18T17:17:32;99678.72;;;0.46;95.44
15529;BME280;7866;52.280;9.500;2022-11-18T17:22:34;99677.28;;;0.53;96.19
15529;BME280;7866;52.280;9.500;2022-11-18T17:27:35;99692.84;;;0.56;95.68
15529;BME280;7866;52.280;9.500;2022-11-18T17:32:38;99699.03;;;0.66;94.56
15529;BME280;7866;52.280;9.500;2022-11-18T17:37:40;99707.53;;;0.70;94.51
15529;BME280;7866;52.280;9.500;2022-11-18T17:42:41;99700.47;;;0.82;94.39
15529;BME280;7866;52.280;9.500;2022-11-18T17:47:44;99704.44;;;0.76;93.32
15529;BME280;7866;52.280;9.500;2022-11-18T17:52:46;99712.81;;;0.81;93.87
15529;BME280;7866;52.280;9.500;2022-11-18T17:57:48;99718.56;;;0.75;92.97
15529;BME280;7866;52.280;9.500;2022-11-18T18:02:51;99733.16;;;0.79;93.23
15529;BME280;7866;52.280;9.500;2022-11-18T18:07:54;99736.38;;;0.94;92.55
15529;BME280;7866;52.280;9.500;2022-11-18T18:12:56;99737.50;;;0.80;92.92
15529;BME280;7866;52.280;9.500;2022-11-18T18:18:16;99745.03;;;0.96;93.18
15529;BME280;7866;52.280;9.500;2022-11-18T18:23:18;99746.47;;;0.89;92.45
15529;BME280;7866;52.280;9.500;2022-11-18T18:28:20;99753.88;;;0.84;91.59
15529;BME280;7866;52.280;9.500;2022-11-18T18:33:23;99761.69;;;0.85;91.02
15529;BME280;7866;52.280;9.500;2022-11-18T18:38:25;99764.09;;;0.77;91.19
15529;BME280;7866;52.280;9.500;2022-11-18T18:43:28;99770.28;;;0.87;90.77
15529;BME280;7866;52.280;9.500;2022-11-18T18:48:31;99766.72;;;0.77;90.86
15529;BME280;7866;52.280;9.500;2022-11-18T18:53:33;99789.59;;;0.88;90.65
15529;BME280;7866;52.280;9.500;2022-11-18T18:58:35;99785.63;;;0.93;91.26
15529;BME280;7866;52.280;9.500;2022-11-18T19:03:38;99787.31;;;0.94;90.64
15529;BME280;7866;52.280;9.500;2022-11-18T19:08:40;99801.22;;;0.74;90.38
15529;BME280;7866;52.280;9.500;2022-11-18T19:13:42;99803.16;;;0.72;89.60
15529;BME280;7866;52.280;9.500;2022-11-18T19:18:45;99811.16;;;0.82;90.18
15529;BME280;7866;52.280;9.500;2022-11-18T19:23:47;99810.19;;;0.71;88.91
15529;BME280;7866;52.280;9.500;2022-11-18T19:28:48;99818.00;;;0.73;88.88
15529;BME280;7866;52.280;9.500;2022-11-18T19:33:52;99820.47;;;0.63;87.49
15529;BME280;7866;52.280;9.500;2022-11-18T19:38:53;99822.66;;;0.69;87.26
15529;BME280;7866;52.280;9.500;2022-11-18T19:43:55;99834.41;;;0.65;86.88
15529;BME280;7866;52.280;9.500;2022-11-18T19:48:58;99835.34;;;0.53;86.88
15529;BME280;7866;52.280;9.500;2022-11-18T19:54:00;99847.94;;;0.61;87.08
15529;BME280;7866;52.280;9.500;2022-11-18T19:59:01;99853.53;;;0.67;86.39
15529;BME280;7866;52.280;9.500;2022-11-18T20:04:04;99844.94;;;0.65;86.86
15529;BME280;7866;52.280;9.500;2022-11-18T20:09:07;99853.91;;;0.63;86.99
15529;BME280;7866;52.280;9.500;2022-11-18T20:14:09;99851.75;;;0.57;86.88
15529;BME280;7866;52.280;9.500;2022-11-18T20:19:13;99861.34;;;0.69;85.99
15529;BME280;7866;52.280;9.500;2022-11-18T20:24:17;99861.44;;;0.45;85.95
15529;BME280;7866;52.280;9.500;2022-11-18T20:29:19;99874.38;;;0.59;85.17
15529;BME280;7866;52.280;9.500;2022-11-18T20:34:22;99861.69;;;0.53;85.57
15529;BME280;7866;52.280;9.500;2022-11-18T20:39:23;99864.53;;;0.50;85.38
15529;BME280;7866;52.280;9.500;2022-11-18T20:44:25;99868.16;;;0.60;84.63
15529;BME280;7866;52.280;9.500;2022-11-18T20:49:29;99871.25;;;0.54;84.16
15529;BME280;7866;52.280;9.500;2022-11-18T20:54:30;99887.25;;;0.40;83.76
15529;BME280;7866;52.280;9.500;2022-11-18T20:59:33;99869.06;;;0.37;83.13
15529;BME280;7866;52.280;9.500;2022-11-18T21:04:36;99858.84;;;0.21;83.34
15529;BME280;7866;52.280;9.500;2022-11-18T21:09:37;99864.38;;;0.29;83.59
15529;BME280;7866;52.280;9.500;2022-11-18T21:14:39;99873.81;;;0.32;82.75
15529;BME280;7866;52.280;9.500;2022-11-18T21:19:42;99882.25;;;0.37;82.81
15529;BME280;7866;52.280;9.500;2022-11-18T21:24:45;99883.81;;;0.51;83.69
15529;BME280;7866;52.280;9.500;2022-11-18T21:29:47;99891.84;;;0.49;83.03
15529;BME280;7866;52.280;9.500;2022-11-18T21:34:50;99890.75;;;0.52;82.91
15529;BME280;7866;52.280;9.500;2022-11-18T21:39:52;99889.88;;;0.29;81.67
15529;BME280;7866;52.280;9.500;2022-11-18T21:44:53;99878.25;;;0.31;81.49
15529;BME280;7866;52.280;9.500;2022-11-18T21:49:57;99890.06;;;0.14;81.12
15529;BME280;7866;52.280;9.500;2022-11-18T21:54:58;99902.56;;;0.35;81.92
15529;BME280;7866;52.280;9.500;2022-11-18T22:00:00;99917.66;;;0.33;81.17
15529;BME280;7866;52.280;9.500;2022-11-18T22:05:04;99906.91;;;0.12;81.45
15529;BME280;7866;52.280;9.500;2022-11-18T22:10:07;99910.91;;;0.17;81.05
15529;BME280;7866;52.280;9.500;2022-11-18T22:15:09;99905.72;;;0.16;82.00
15529;BME280;7866;52.280;9.500;2022-11-18T22:20:13;99923.56;;;0.12;81.68
15529;BME280;7866;52.280;9.500;2022-11-18T22:25:15;99927.38;;;0.32;82.15
15529;BME280;7866;52.280;9.500;2022-11-18T22:30:17;99930.56;;;0.24;81.51
15529;BME280;7866;52.280;9.500;2022-11-18T22:35:20;99945.19;;;0.29;81.76
15529;BME280;7866;52.280;9.500;2022-11-18T22:40:22;99939.69;;;0.08;81.31
15529;BME280;7866;52.280;9.500;2022-11-18T22:45:23;99952.53;;;0.12;81.67
15529;BME280;7866;52.280;9.500;2022-11-18T22:50:26;99951.28;;;0.05;82.44
15529;BME280;7866;52.280;9.500;2022-11-18T22:55:28;99960.72;;;0.20;83.18
15529;BME280;7866;52.280;9.500;2022-11-18T23:00:30;99963.28;;;0.09;83.32
15529;BME280;7866;52.280;9.500;2022-11-18T23:05:34;99964.25;;;0.08;83.34
15529;BME280;7866;52.280;9.500;2022-11-18T23:10:36;99971.59;;;0.03;82.19
15529;BME280;7866;52.280;9.500;2022-11-18T23:15:38;99985.84;;;0.01;82.31
15529;BME280;7866;52.280;9.500;2022-11-18T23:20:41;99986.69;;;0.01;83.64
15529;BME280;7866;52.280;9.500;2022-11-18T23:25:42;99981.00;;;-0.06;84.08
15529;BME280;7866;52.280;9.500;2022-11-18T23:30:44;99990.84;;;-0.20;85.27
15529;BME280;7866;52.280;9.500;2022-11-18T23:35:52;99999.28;;;-0.15;84.79
15529;BME280;7866;52.280;9.500;2022-11-18T23:40:54;100003.59;;;-0.27;84.77
15529;BME280;7866;52.280;9.500;2022-11-18T23:45:56;99994.16;;;-0.42;84.73
15529;BME280;7866;52.280;9.500;2022-11-18T23:51:01;100002.06;;;-0.42;84.56
15529;BME280;7866;52.280;9.500;2022-11-18T23:56:04;100004.47;;;-0.52;84.96
